Ship Status Report: callsign AMOUK35

sailwx.info

Track history (hours):
 
Tides and Currents Weather Stations Pressure Air Temp Water Temp Dewpoint Dewpoint Depression Visibility Wind Speed Wind Dir Waves Ship Positions

Callsign AMOUK35 (name unknown)

Last reported at 2014-Oct-25 00:00 UTC. Time now 2014-Oct-25 01:36 UTC.
Position N 55°30' W 005°06'.

Barometer 1006.9 mb
Air temperature 10.9 ° C
Dewpoint 7.2 ° C

Date/timePositionNaut miles runAvg speedWind from/ knotsBaromVisibWave heightAir tempDewpointWater temp
2014-Oct-25 00:00N 55°30' W 005°06'0 0.0 1006.9 10.9 7.2
2014-Oct-24 23:00N 55°30' W 005°06'0 0.0 1007.2 10.9 7.0
2014-Oct-24 22:00N 55°30' W 005°06'0 0.0 1007.2 11.2 7.5
2014-Oct-24 21:00N 55°30' W 005°06'0 0.0 1007.5 11.1 7.2
2014-Oct-24 20:00N 55°30' W 005°06'0 0.0 1007.0 10.8 7.3
2014-Oct-24 19:00N 55°30' W 005°06'0 0.0 1006.9 11.4 7.4
2014-Oct-24 18:00N 55°30' W 005°06'0 0.0 1006.7 11.5 7.2
2014-Oct-24 17:00N 55°30' W 005°06'0 0.0 1006.3 11.3 6.8
2014-Oct-24 16:00N 55°30' W 005°06'0 0.0 1006.4 11.0 6.6
2014-Oct-24 15:00N 55°30' W 005°06'0 0.0 1006.6 10.7 6.6
2014-Oct-24 14:00N 55°30' W 005°06'0 0.0 1006.7 10.5 6.8
2014-Oct-24 13:00N 55°30' W 005°06'0 0.0 1006.9 10.0 6.5
2014-Oct-24 12:00N 55°30' W 005°06'7 6.9 1007.5 10.2 6.6
2014-Oct-24 11:00N 55°36' W 005°00'1212.0 1007.1 10.7 6.8
2014-Oct-24 10:00N 55°48' W 005°00'7 6.9 1007.4 10.6 6.1
2014-Oct-24 09:00N 55°54' W 004°54'3 3.4 1007.2 10.3 6.1
2014-Oct-24 08:00N 55°54' W 004°48'0 0.0 1007.8 9.5 6.0
2014-Oct-24 07:00N 55°54' W 004°48'0 0.0 1007.6 9.6 6.0
2014-Oct-24 06:00N 55°54' W 004°48'0 0.0 1007.5 9.9 6.1
2014-Oct-24 05:00N 55°54' W 004°48'0 0.0 1007.3 9.7 6.9
2014-Oct-24 04:00N 55°54' W 004°48'0 0.0 1007.4 9.4 6.3
2014-Oct-24 03:00N 55°54' W 004°48'0 0.0 1007.3 9.7 6.9
2014-Oct-24 02:00N 55°54' W 004°48'0 0.0 1007.4 9.8 7.0
2014-Oct-24 01:00N 55°54' W 004°48'0 0.0 1006.9 10.0 7.5
2014-Oct-24 00:00N 55°54' W 004°48'0 0.0 1007.0 10.1 7.3
2014-Oct-23 22:00N 55°54' W 004°48'0 0.0 1006.6 11.4 8.5
2014-Oct-23 21:00N 55°54' W 004°48'0 0.0 1006.6 11.8 8.5
2014-Oct-23 20:00N 55°54' W 004°48'0 0.0 1006.2 12.1 9.5
2014-Oct-23 19:00N 55°54' W 004°48'0 0.0 1006.2 12.1 9.9
2014-Oct-23 18:00N 55°54' W 004°48'0 0.0 1005.5 13.411.2
2014-Oct-23 17:00N 55°54' W 004°48'0 0.0 1005.1 13.511.1
2014-Oct-23 16:00N 55°54' W 004°48'0 0.0 1005.4 13.710.9
2014-Oct-23 15:00N 55°54' W 004°48'0 0.0 1006.0 13.411.1
2014-Oct-23 14:00N 55°54' W 004°48'0 0.0 1006.6 13.311.1
2014-Oct-23 13:00N 55°54' W 004°48'0 0.0 1007.1 14.011.2
2014-Oct-23 12:00N 55°54' W 004°48'0 0.0 1007.7 13.911.1
2014-Oct-23 11:00N 55°54' W 004°48'0 0.0 1008.2 13.711.0
2014-Oct-23 10:00N 55°54' W 004°48'0 0.0 1008.5 13.210.4
2014-Oct-23 09:00N 55°54' W 004°48'0 0.0 1009.1 12.710.3
2014-Oct-23 06:00N 55°54' W 004°48'0 0.0 1009.9 12.210.2
2014-Oct-23 05:00N 55°54' W 004°48'0 0.0 1009.9 12.0 9.9
2014-Oct-23 04:00N 55°54' W 004°48'0 0.0 1010.4 11.9 9.8
2014-Oct-23 03:00N 55°54' W 004°48'0 0.0 1011.0 12.0 9.5
2014-Oct-23 02:00N 55°54' W 004°48'0 0.0 1010.9 12.3 9.4
2014-Oct-23 01:00N 55°54' W 004°48'0 0.0 1011.0 12.6 9.1
2014-Oct-23 00:00N 55°54' W 004°48'0 0.0 1011.3 12.5 9.2
2014-Oct-22 23:00N 55°54' W 004°48'0 0.0 1011.7 12.5 9.0
2014-Oct-22 22:00N 55°54' W 004°48'0 0.0 1012.2 12.5 9.1
2014-Oct-22 21:00N 55°54' W 004°48'0 0.0 1012.7 12.3 9.2
2014-Oct-22 20:00N 55°54' W 004°48'0 0.0 1013.1 12.3 9.2
2014-Oct-22 19:00N 55°54' W 004°48'0 0.0 1013.4 12.4 9.0
2014-Oct-22 18:00N 55°54' W 004°48'0 0.0 1013.8 12.2 8.9
2014-Oct-22 17:00N 55°54' W 004°48'0 0.0 1014.4 12.1 9.1
2014-Oct-22 16:00N 55°54' W 004°48'0 0.0 1014.6 12.2 9.3
2014-Oct-22 15:00N 55°54' W 004°48'0 0.0 1014.9 12.1 9.5
2014-Oct-22 14:00N 55°54' W 004°48'0 0.0 1016.3 11.7 9.5
2014-Oct-22 13:00N 55°54' W 004°48'0 0.0 1016.0 11.6 9.3
2014-Oct-22 12:00N 55°54' W 004°48'0 0.0 1016.6 11.7 9.2
2014-Oct-22 11:00N 55°54' W 004°48'0 0.0 1017.4 11.3 9.0
2014-Oct-22 10:00N 55°54' W 004°48'0 0.0 1017.5 11.0 8.9
2014-Oct-22 09:00N 55°54' W 004°48'0 0.0 1018.4 10.7 8.5
2014-Oct-22 08:00N 55°54' W 004°48'0 0.0 1018.5 10.6 8.2
2014-Oct-22 07:00N 55°54' W 004°48'0 0.0 1018.9 10.4 7.0
2014-Oct-22 06:00N 55°54' W 004°48'0 0.0 1018.8 10.7 6.1
2014-Oct-22 05:00N 55°54' W 004°48'0 0.0 1018.7 10.1 5.0
2014-Oct-22 04:00N 55°54' W 004°48'0 0.0 1018.2 10.3 4.5
2014-Oct-22 03:00N 55°54' W 004°48'0 0.0 1018.2 9.8 5.7
2014-Oct-22 02:00N 55°54' W 004°48'0 0.0 1017.7 9.8 5.0
2014-Oct-22 01:00N 55°54' W 004°48'0 0.0 1016.6 9.7 4.3
2014-Oct-22 00:00N 55°54' W 004°48'0 0.0 1016.4 9.6 4.6
2014-Oct-21 23:00N 55°54' W 004°48'0 0.0 1015.9 9.3 4.5
2014-Oct-21 22:00N 55°54' W 004°48'0 0.0 1015.2 8.7 4.3
2014-Oct-21 21:00N 55°54' W 004°48'0 0.0 1014.6 8.2 3.8
2014-Oct-21 20:00N 55°54' W 004°48'0 0.0 1013.5 9.1 2.6
2014-Oct-21 19:00N 55°54' W 004°48'0 0.0 1013.1 8.7 1.0
2014-Oct-21 18:00N 55°54' W 004°48'0 0.0 1011.9 7.4 2.6
2014-Oct-21 17:00N 55°54' W 004°48'0 0.0 1010.2 8.7 0.9
2014-Oct-21 16:00N 55°54' W 004°48'0 0.0 1008.1 8.6 2.3
2014-Oct-21 15:00N 55°54' W 004°48'0 0.0 1006.8 7.8 2.7
2014-Oct-21 14:00N 55°54' W 004°48'0 0.0 1004.5 9.0 1.2
2014-Oct-21 13:00N 55°54' W 004°48'0 0.0 1002.4 8.1 2.1
2014-Oct-21 12:00N 55°54' W 004°48'0 0.0 1000.1 9.4 1.1
2014-Oct-21 11:00N 55°54' W 004°48'0 0.0 997.9 9.3 2.4
2014-Oct-21 10:00N 55°54' W 004°48'0 0.0 996.1 9.0 3.5
2014-Oct-21 09:00N 55°54' W 004°48'0 0.0 994.2 9.5 3.8
2014-Oct-21 08:00N 55°54' W 004°48'0 0.0 992.7 9.7 3.5
2014-Oct-21 07:00N 55°54' W 004°48'0 0.0 991.0 9.1 4.6
2014-Oct-21 05:00N 55°54' W 004°48'0 0.0 987.6 9.0 5.5
2014-Oct-21 04:00N 55°54' W 004°48'0 0.0 983.6 11.4 8.4
2014-Oct-21 03:00N 55°54' W 004°48'0 0.0 983.5 13.411.0
2014-Oct-21 02:00N 55°54' W 004°48'0 0.0 985.7 13.511.0
2014-Oct-21 01:00N 55°54' W 004°48'0 0.0 987.9 13.210.9
2014-Oct-21 00:00N 55°54' W 004°48'0 0.0 990.7 13.010.4
2014-Oct-20 23:00N 55°54' W 004°48'0 0.0 992.9 13.710.6
2014-Oct-20 22:00N 55°54' W 004°48'0 0.0 995.8 14.010.7
2014-Oct-20 21:00N 55°54' W 004°48'0 0.0 997.4 13.810.5
2014-Oct-20 20:00N 55°54' W 004°48'3 3.4 999.4 13.710.4
2014-Oct-20 19:00N 55°54' W 004°42'7 6.7 1000.9 13.010.2
2014-Oct-20 18:00N 55°54' W 004°30'7 6.7 1003.1 12.8 9.4
2014-Oct-20 17:00N 55°54' W 004°18'7 6.7 1004.3 13.2 9.3
2014-Oct-20 16:00N 55°54' W 004°30'7 6.7 1004.7 12.8 9.3
2014-Oct-20 15:00N 55°54' W 004°42'7 6.9 1005.4 12.9 9.1
2014-Oct-20 14:00N 56°00' W 004°48'0 0.0 1005.6 12.7 9.3
2014-Oct-20 13:00N 56°00' W 004°48'0 0.0 1006.2 12.0 9.3
2014-Oct-20 12:00N 56°00' W 004°48'7 6.9 1006.8 12.1 9.3
2014-Oct-20 11:00N 55°54' W 004°54'0 0.0 1007.3 11.7 9.8
2014-Oct-20 10:00N 55°54' W 004°54'1212.5 1007.4 12.6 9.9
2014-Oct-20 09:00N 55°42' W 005°00'1212.5 1007.9 12.3 8.7
2014-Oct-20 08:00N 55°30' W 005°06'0 0.0 1007.8 11.6 8.2
2014-Oct-20 07:00N 55°30' W 005°06'0 0.0 1007.9 11.4 8.1
2014-Oct-20 06:00N 55°30' W 005°06'0 0.0 1007.6 11.4 8.1
2014-Oct-20 05:00N 55°30' W 005°06'0 0.0 1007.7 11.4 8.4
2014-Oct-20 03:00N 55°30' W 005°06'0 0.0 1008.3 11.7 8.6
2014-Oct-20 02:00N 55°30' W 005°06'0 0.0 1008.1 11.6 8.6
2014-Oct-20 01:00N 55°30' W 005°06'0 0.0 1008.2 12.0 8.5
2014-Oct-20 00:00N 55°30' W 005°06'0 0.0 1008.0 11.8 8.5
2014-Oct-19 23:00N 55°30' W 005°06'0 0.0 1007.5 11.7 8.7
2014-Oct-19 22:00N 55°30' W 005°06'0 0.0 1007.2 12.4 8.5
2014-Oct-19 21:00N 55°30' W 005°06'0 0.0 1006.6 11.8 7.6
2014-Oct-19 20:00N 55°30' W 005°06'0 0.0 1005.8 12.1 8.4
2014-Oct-19 19:00N 55°30' W 005°06'0 0.0 1005.0 12.1 8.4
2014-Oct-19 18:00N 55°30' W 005°06'0 0.0 1003.8 12.5 8.4
2014-Oct-19 17:00N 55°30' W 005°06'0 0.0 1003.3 12.5 8.7
2014-Oct-19 16:00N 55°30' W 005°06'0 0.0 1002.2 12.9 8.2
2014-Oct-19 15:00N 55°30' W 005°06'0 0.0 1001.5 13.0 8.7
2014-Oct-19 14:00N 55°30' W 005°06'0 0.0 1000.4 13.0 9.6
2014-Oct-19 13:00N 55°30' W 005°06'0 0.0 998.3 13.310.6
2014-Oct-19 12:00N 55°30' W 005°06'0 0.0 997.7 13.310.9
2014-Oct-19 11:00N 55°30' W 005°06'0 0.0 997.2 13.710.6
2014-Oct-19 10:00N 55°30' W 005°06'0 0.0 996.6 13.810.8
2014-Oct-19 09:00N 55°30' W 005°06'0 0.0 995.7 13.711.1
2014-Oct-19 08:00N 55°30' W 005°06'0 0.0 995.7 13.511.1
2014-Oct-19 07:00N 55°30' W 005°06'0 0.0 995.0 13.810.9
2014-Oct-19 06:00N 55°30' W 005°06'0 0.0 995.1 13.910.7
2014-Oct-19 05:00N 55°30' W 005°06'0 0.0 995.3 14.510.3
2014-Oct-19 04:00N 55°30' W 005°06'0 0.0 995.7 15.010.1
2014-Oct-19 03:00N 55°30' W 005°06'0 0.0 996.1 14.710.9
2014-Oct-19 02:00N 55°30' W 005°06'0 0.0 997.0 14.711.6
2014-Oct-19 01:00N 55°30' W 005°06'0 0.0 997.3 14.811.8
2014-Oct-19 00:00N 55°30' W 005°06'0 0.0 998.2 14.811.8
2014-Oct-18 23:00N 55°30' W 005°06'0 0.0 998.5 14.811.7
2014-Oct-18 22:00N 55°30' W 005°06'0 0.0 998.9 14.911.7
2014-Oct-18 21:00N 55°30' W 005°06'0 0.0 998.8 15.011.9
2014-Oct-18 20:00N 55°30' W 005°06'0 0.0 998.8 15.112.0
2014-Oct-18 19:00N 55°30' W 005°06'0 0.0 998.6 15.112.3
2014-Oct-18 18:00N 55°30' W 005°06'0 0.0 998.2 15.212.3
2014-Oct-18 17:00N 55°30' W 005°06'0 0.0 998.2 15.312.4
2014-Oct-18 16:00N 55°30' W 005°06'0 0.0 998.1 15.512.3
2014-Oct-18 15:00N 55°30' W 005°06'0 0.0 997.8 15.612.7
2014-Oct-18 14:00N 55°30' W 005°06'0 0.0 997.7 15.412.3
2014-Oct-18 13:00N 55°30' W 005°06'0 0.0 997.5 15.712.5
2014-Oct-18 12:00N 55°30' W 005°06'1211.8 997.0 15.312.6
2014-Oct-18 11:00N 55°36' W 004°48'3 3.4 997.5 15.412.0
2014-Oct-18 10:00N 55°36' W 004°42'9 9.0 997.4 15.212.1
2014-Oct-18 09:00N 55°42' W 004°54'7 6.9 996.2 14.511.7
2014-Oct-18 08:00N 55°48' W 005°00'7 6.9 995.4 14.512.4
2014-Oct-18 07:00N 55°54' W 005°06'0 0.0 994.8 15.412.4
2014-Oct-18 06:00N 55°54' W 005°06'0 0.0 994.3 15.412.9
2014-Oct-18 05:00N 55°54' W 005°06'0 0.0 994.0 15.413.1
2014-Oct-18 04:00N 55°54' W 005°06'0 0.0 994.3 15.513.2
2014-Oct-18 03:00N 55°54' W 005°06'0 0.0 994.8 15.613.3
2014-Oct-18 02:00N 55°54' W 005°06'0 0.0 994.5 15.513.3
2014-Oct-18 01:00N 55°54' W 005°06'0 0.0 995.0 15.113.0
2014-Oct-18 00:00N 55°54' W 005°06'0 0.0 995.4 14.713.1
2014-Oct-17 23:00N 55°54' W 005°06'0 0.0 995.7 13.712.1
2014-Oct-17 22:00N 55°54' W 005°06'0 0.0 997.0 14.211.9
2014-Oct-17 21:00N 55°54' W 005°06'0 0.0 998.5 14.611.7
2014-Oct-17 20:00N 55°54' W 005°06'7 6.7 1000.1 15.211.6
2014-Oct-17 19:00N 55°54' W 004°54'3 3.4 1001.3 15.211.9
2014-Oct-17 18:00N 55°54' W 004°48'0 0.0 1002.4 14.912.0
2014-Oct-17 17:00N 55°54' W 004°48'0 0.0 1002.6 15.312.1
2014-Oct-17 16:00N 55°54' W 004°48'0 0.0 1002.7 15.511.8
2014-Oct-17 15:00N 55°54' W 004°48'0 0.0 1003.2 16.411.8
2014-Oct-17 14:00N 55°54' W 004°48'0 0.0 1003.2 16.811.8
2014-Oct-17 13:00N 55°54' W 004°48'0 0.0 1003.5 16.411.1
2014-Oct-17 12:00N 55°54' W 004°48'0 0.0 1003.9 16.111.2
2014-Oct-17 11:00N 55°54' W 004°48'0 0.0 1003.8 15.211.1
2014-Oct-17 10:00N 55°54' W 004°48'0 0.0 1003.3 14.512.3
2014-Oct-17 09:00N 55°54' W 004°48'0 0.0 1002.6 12.710.9
2014-Oct-17 08:00N 55°54' W 004°48'0 0.0 1002.0 12.310.6
2014-Oct-17 07:00N 55°54' W 004°48'0 0.0 1001.1 12.010.3
2014-Oct-17 06:00N 55°54' W 004°48'0 0.0 1000.5 12.010.3
2014-Oct-17 05:00N 55°54' W 004°48'0 0.0 999.9 11.610.1
2014-Oct-17 04:00N 55°54' W 004°48'0 0.0 999.8 11.810.1
2014-Oct-17 03:00N 55°54' W 004°48'0 0.0 999.5 11.6 9.8
2014-Oct-17 02:00N 55°54' W 004°48'0 0.0 999.6 11.4 9.7
2014-Oct-17 01:00N 55°54' W 004°48'0 0.0 999.7 11.4 9.7
2014-Oct-17 00:00N 55°54' W 004°48'0 0.0 999.6 11.4 9.6
2014-Oct-16 23:00N 55°54' W 004°48'0 0.0 1000.2 11.5 9.4
2014-Oct-16 22:00N 55°54' W 004°48'0 0.0 1000.1 11.7 9.5
2014-Oct-16 21:00N 55°54' W 004°48'0 0.0 1000.2 11.7 9.3
2014-Oct-16 20:00N 55°54' W 004°48'0 0.0 1000.2 12.2 9.0
2014-Oct-16 19:00N 55°54' W 004°48'0 0.0 1000.1 12.4 9.2
2014-Oct-16 18:00N 55°54' W 004°48'0 0.0 999.9 12.8 9.6
2014-Oct-16 17:00N 55°54' W 004°48'0 0.0 999.5 12.7 9.3
2014-Oct-16 14:00N 55°54' W 004°48'0 0.0 1000.1 13.1 9.8
2014-Oct-16 12:00N 55°54' W 004°48'0 0.0 1000.1 12.8 9.8
2014-Oct-16 11:00N 55°54' W 004°48'0 0.0 1000.4 12.6 9.9
2014-Oct-16 10:00N 55°54' W 004°48'0 0.0 1000.2 11.9 9.3
2014-Oct-16 08:00N 55°54' W 004°48'0 0.0 999.9 11.0 9.1
2014-Oct-16 07:00N 55°54' W 004°48'0 0.0 999.5 10.7 8.7
2014-Oct-16 06:00N 55°54' W 004°48'0 0.0 999.3 10.6 8.7
2014-Oct-16 04:00N 55°54' W 004°48'0 0.0 999.5 10.3 8.3
2014-Oct-16 03:00N 55°54' W 004°48'0 0.0 999.8 10.7 7.8
2014-Oct-16 02:00N 55°54' W 004°48'0 0.0 1000.2 10.9 7.7
2014-Oct-16 00:00N 55°54' W 004°48'0 0.0 1001.2 11.2 7.1
2014-Oct-15 23:00N 55°54' W 004°48'0 0.0 1001.7 11.1 6.9
2014-Oct-15 22:00N 55°54' W 004°48'0 0.0 1002.4 11.1 6.9
2014-Oct-15 20:00N 55°54' W 004°48'0 0.0 1002.6 11.2 6.4
2014-Oct-15 19:00N 55°54' W 004°48'0 0.0 1002.9 11.4 5.7
2014-Oct-15 18:00N 55°54' W 004°48'0 0.0 1003.2 11.7 5.8
2014-Oct-15 17:00N 55°54' W 004°48'0 0.0 1003.2 12.3 5.5
2014-Oct-15 15:00N 55°54' W 004°48'0 0.0 1003.9 13.6 5.1
2014-Oct-15 14:00N 55°54' W 004°48'0 0.0 1004.6 14.1 6.4
2014-Oct-15 13:00N 55°54' W 004°48'0 0.0 1005.1 13.2 6.8
2014-Oct-15 12:00N 55°54' W 004°48'0 0.0 1006.1 12.9 7.0
2014-Oct-15 11:00N 55°54' W 004°48'0 0.0 1006.9 12.3 7.0
2014-Oct-15 10:00N 55°54' W 004°48'0 0.0 1007.8 10.6 7.3
2014-Oct-15 09:00N 55°54' W 004°48'0 0.0 1008.2 10.0 6.8
2014-Oct-15 08:00N 55°54' W 004°48'0 0.0 1008.2 9.8 6.6
2014-Oct-15 07:00N 55°54' W 004°48'0 0.0 1008.4 9.5 6.2
2014-Oct-15 05:00N 55°54' W 004°48'0 0.0 1008.7 9.5 5.9
2014-Oct-15 04:00N 55°54' W 004°48'0 0.0 1009.0 9.2 5.7
2014-Oct-15 03:00N 55°54' W 004°48'0 0.0 1009.6 9.2 5.6
2014-Oct-15 02:00N 55°54' W 004°48'0 0.0 1010.2 9.2 5.5
2014-Oct-15 00:00N 55°54' W 004°48'   1011.2 9.5 5.2
Track history (hours):
 
Tides and Currents Weather Stations Pressure Air Temp Water Temp Dewpoint Dewpoint Depression Visibility Wind Speed Wind Dir Waves Ship Positions

Callsign AMOUK35 (name unknown)

Last reported at 2014-Oct-25 00:00 UTC. Time now 2014-Oct-25 01:36 UTC.
Position N 55°30' W 005°06'.

Barometer 1006.9 mb
Air temperature 10.9 ° C
Dewpoint 7.2 ° C

Date/timePositionNaut miles runAvg speedWind from/ knotsBaromVisibWave heightAir tempDewpointWater temp
2014-Oct-25 00:00N 55°30' W 005°06'0 0.0 1006.9 10.9 7.2
2014-Oct-24 23:00N 55°30' W 005°06'0 0.0 1007.2 10.9 7.0
2014-Oct-24 22:00N 55°30' W 005°06'0 0.0 1007.2 11.2 7.5
2014-Oct-24 21:00N 55°30' W 005°06'0 0.0 1007.5 11.1 7.2
2014-Oct-24 20:00N 55°30' W 005°06'0 0.0 1007.0 10.8 7.3
2014-Oct-24 19:00N 55°30' W 005°06'0 0.0 1006.9 11.4 7.4
2014-Oct-24 18:00N 55°30' W 005°06'0 0.0 1006.7 11.5 7.2
2014-Oct-24 17:00N 55°30' W 005°06'0 0.0 1006.3 11.3 6.8
2014-Oct-24 16:00N 55°30' W 005°06'0 0.0 1006.4 11.0 6.6
2014-Oct-24 15:00N 55°30' W 005°06'0 0.0 1006.6 10.7 6.6
2014-Oct-24 14:00N 55°30' W 005°06'0 0.0 1006.7 10.5 6.8
2014-Oct-24 13:00N 55°30' W 005°06'0 0.0 1006.9 10.0 6.5
2014-Oct-24 12:00N 55°30' W 005°06'7 6.9 1007.5 10.2 6.6
2014-Oct-24 11:00N 55°36' W 005°00'1212.0 1007.1 10.7 6.8
2014-Oct-24 10:00N 55°48' W 005°00'7 6.9 1007.4 10.6 6.1
2014-Oct-24 09:00N 55°54' W 004°54'3 3.4 1007.2 10.3 6.1
2014-Oct-24 08:00N 55°54' W 004°48'0 0.0 1007.8 9.5 6.0
2014-Oct-24 07:00N 55°54' W 004°48'0 0.0 1007.6 9.6 6.0
2014-Oct-24 06:00N 55°54' W 004°48'0 0.0 1007.5 9.9 6.1
2014-Oct-24 05:00N 55°54' W 004°48'0 0.0 1007.3 9.7 6.9
2014-Oct-24 04:00N 55°54' W 004°48'0 0.0 1007.4 9.4 6.3
2014-Oct-24 03:00N 55°54' W 004°48'0 0.0 1007.3 9.7 6.9
2014-Oct-24 02:00N 55°54' W 004°48'0 0.0 1007.4 9.8 7.0
2014-Oct-24 01:00N 55°54' W 004°48'0 0.0 1006.9 10.0 7.5
2014-Oct-24 00:00N 55°54' W 004°48'0 0.0 1007.0 10.1 7.3
2014-Oct-23 22:00N 55°54' W 004°48'0 0.0 1006.6 11.4 8.5
2014-Oct-23 21:00N 55°54' W 004°48'0 0.0 1006.6 11.8 8.5
2014-Oct-23 20:00N 55°54' W 004°48'0 0.0 1006.2 12.1 9.5
2014-Oct-23 19:00N 55°54' W 004°48'0 0.0 1006.2 12.1 9.9
2014-Oct-23 18:00N 55°54' W 004°48'0 0.0 1005.5 13.411.2
2014-Oct-23 17:00N 55°54' W 004°48'0 0.0 1005.1 13.511.1
2014-Oct-23 16:00N 55°54' W 004°48'0 0.0 1005.4 13.710.9
2014-Oct-23 15:00N 55°54' W 004°48'0 0.0 1006.0 13.411.1
2014-Oct-23 14:00N 55°54' W 004°48'0 0.0 1006.6 13.311.1
2014-Oct-23 13:00N 55°54' W 004°48'0 0.0 1007.1 14.011.2
2014-Oct-23 12:00N 55°54' W 004°48'0 0.0 1007.7 13.911.1
2014-Oct-23 11:00N 55°54' W 004°48'0 0.0 1008.2 13.711.0
2014-Oct-23 10:00N 55°54' W 004°48'0 0.0 1008.5 13.210.4
2014-Oct-23 09:00N 55°54' W 004°48'0 0.0 1009.1 12.710.3
2014-Oct-23 06:00N 55°54' W 004°48'0 0.0 1009.9 12.210.2
2014-Oct-23 05:00N 55°54' W 004°48'0 0.0 1009.9 12.0 9.9
2014-Oct-23 04:00N 55°54' W 004°48'0 0.0 1010.4 11.9 9.8
2014-Oct-23 03:00N 55°54' W 004°48'0 0.0 1011.0 12.0 9.5
2014-Oct-23 02:00N 55°54' W 004°48'0 0.0 1010.9 12.3 9.4
2014-Oct-23 01:00N 55°54' W 004°48'0 0.0 1011.0 12.6 9.1
2014-Oct-23 00:00N 55°54' W 004°48'0 0.0 1011.3 12.5 9.2
2014-Oct-22 23:00N 55°54' W 004°48'0 0.0 1011.7 12.5 9.0
2014-Oct-22 22:00N 55°54' W 004°48'0 0.0 1012.2 12.5 9.1
2014-Oct-22 21:00N 55°54' W 004°48'0 0.0 1012.7 12.3 9.2
2014-Oct-22 20:00N 55°54' W 004°48'0 0.0 1013.1 12.3 9.2
2014-Oct-22 19:00N 55°54' W 004°48'0 0.0 1013.4 12.4 9.0
2014-Oct-22 18:00N 55°54' W 004°48'0 0.0 1013.8 12.2 8.9
2014-Oct-22 17:00N 55°54' W 004°48'0 0.0 1014.4 12.1 9.1
2014-Oct-22 16:00N 55°54' W 004°48'0 0.0 1014.6 12.2 9.3
2014-Oct-22 15:00N 55°54' W 004°48'0 0.0 1014.9 12.1 9.5
2014-Oct-22 14:00N 55°54' W 004°48'0 0.0 1016.3 11.7 9.5
2014-Oct-22 13:00N 55°54' W 004°48'0 0.0 1016.0 11.6 9.3
2014-Oct-22 12:00N 55°54' W 004°48'0 0.0 1016.6 11.7 9.2
2014-Oct-22 11:00N 55°54' W 004°48'0 0.0 1017.4 11.3 9.0
2014-Oct-22 10:00N 55°54' W 004°48'0 0.0 1017.5 11.0 8.9
2014-Oct-22 09:00N 55°54' W 004°48'0 0.0 1018.4 10.7 8.5
2014-Oct-22 08:00N 55°54' W 004°48'0 0.0 1018.5 10.6 8.2
2014-Oct-22 07:00N 55°54' W 004°48'0 0.0 1018.9 10.4 7.0
2014-Oct-22 06:00N 55°54' W 004°48'0 0.0 1018.8 10.7 6.1
2014-Oct-22 05:00N 55°54' W 004°48'0 0.0 1018.7 10.1 5.0
2014-Oct-22 04:00N 55°54' W 004°48'0 0.0 1018.2 10.3 4.5
2014-Oct-22 03:00N 55°54' W 004°48'0 0.0 1018.2 9.8 5.7
2014-Oct-22 02:00N 55°54' W 004°48'0 0.0 1017.7 9.8 5.0
2014-Oct-22 01:00N 55°54' W 004°48'0 0.0 1016.6 9.7 4.3
2014-Oct-22 00:00N 55°54' W 004°48'0 0.0 1016.4 9.6 4.6
2014-Oct-21 23:00N 55°54' W 004°48'0 0.0 1015.9 9.3 4.5
2014-Oct-21 22:00N 55°54' W 004°48'0 0.0 1015.2 8.7 4.3
2014-Oct-21 21:00N 55°54' W 004°48'0 0.0 1014.6 8.2 3.8
2014-Oct-21 20:00N 55°54' W 004°48'0 0.0 1013.5 9.1 2.6
2014-Oct-21 19:00N 55°54' W 004°48'0 0.0 1013.1 8.7 1.0
2014-Oct-21 18:00N 55°54' W 004°48'0 0.0 1011.9 7.4 2.6
2014-Oct-21 17:00N 55°54' W 004°48'0 0.0 1010.2 8.7 0.9
2014-Oct-21 16:00N 55°54' W 004°48'0 0.0 1008.1 8.6 2.3
2014-Oct-21 15:00N 55°54' W 004°48'0 0.0 1006.8 7.8 2.7
2014-Oct-21 14:00N 55°54' W 004°48'0 0.0 1004.5 9.0 1.2
2014-Oct-21 13:00N 55°54' W 004°48'0 0.0 1002.4 8.1 2.1
2014-Oct-21 12:00N 55°54' W 004°48'0 0.0 1000.1 9.4 1.1
2014-Oct-21 11:00N 55°54' W 004°48'0 0.0 997.9 9.3 2.4
2014-Oct-21 10:00N 55°54' W 004°48'0 0.0 996.1 9.0 3.5
2014-Oct-21 09:00N 55°54' W 004°48'0 0.0 994.2 9.5 3.8
2014-Oct-21 08:00N 55°54' W 004°48'0 0.0 992.7 9.7 3.5
2014-Oct-21 07:00N 55°54' W 004°48'0 0.0 991.0 9.1 4.6
2014-Oct-21 05:00N 55°54' W 004°48'0 0.0 987.6 9.0 5.5
2014-Oct-21 04:00N 55°54' W 004°48'0 0.0 983.6 11.4 8.4
2014-Oct-21 03:00N 55°54' W 004°48'0 0.0 983.5 13.411.0
2014-Oct-21 02:00N 55°54' W 004°48'0 0.0 985.7 13.511.0
2014-Oct-21 01:00N 55°54' W 004°48'0 0.0 987.9 13.210.9
2014-Oct-21 00:00N 55°54' W 004°48'0 0.0 990.7 13.010.4
2014-Oct-20 23:00N 55°54' W 004°48'0 0.0 992.9 13.710.6
2014-Oct-20 22:00N 55°54' W 004°48'0 0.0 995.8 14.010.7
2014-Oct-20 21:00N 55°54' W 004°48'0 0.0 997.4 13.810.5
2014-Oct-20 20:00N 55°54' W 004°48'3 3.4 999.4 13.710.4
2014-Oct-20 19:00N 55°54' W 004°42'7 6.7 1000.9 13.010.2
2014-Oct-20 18:00N 55°54' W 004°30'7 6.7 1003.1 12.8 9.4
2014-Oct-20 17:00N 55°54' W 004°18'7 6.7 1004.3 13.2 9.3
2014-Oct-20 16:00N 55°54' W 004°30'7 6.7 1004.7 12.8 9.3
2014-Oct-20 15:00N 55°54' W 004°42'7 6.9 1005.4 12.9 9.1
2014-Oct-20 14:00N 56°00' W 004°48'0 0.0 1005.6 12.7 9.3
2014-Oct-20 13:00N 56°00' W 004°48'0 0.0 1006.2 12.0 9.3
2014-Oct-20 12:00N 56°00' W 004°48'7 6.9 1006.8 12.1 9.3
2014-Oct-20 11:00N 55°54' W 004°54'0 0.0 1007.3 11.7 9.8
2014-Oct-20 10:00N 55°54' W 004°54'1212.5 1007.4 12.6 9.9
2014-Oct-20 09:00N 55°42' W 005°00'1212.5 1007.9 12.3 8.7
2014-Oct-20 08:00N 55°30' W 005°06'0 0.0 1007.8 11.6 8.2
2014-Oct-20 07:00N 55°30' W 005°06'0 0.0 1007.9 11.4 8.1
2014-Oct-20 06:00N 55°30' W 005°06'0 0.0 1007.6 11.4 8.1
2014-Oct-20 05:00N 55°30' W 005°06'0 0.0 1007.7 11.4 8.4
2014-Oct-20 03:00N 55°30' W 005°06'0 0.0 1008.3 11.7 8.6
2014-Oct-20 02:00N 55°30' W 005°06'0 0.0 1008.1 11.6 8.6
2014-Oct-20 01:00N 55°30' W 005°06'0 0.0 1008.2 12.0 8.5
2014-Oct-20 00:00N 55°30' W 005°06'0 0.0 1008.0 11.8 8.5
2014-Oct-19 23:00N 55°30' W 005°06'0 0.0 1007.5 11.7 8.7
2014-Oct-19 22:00N 55°30' W 005°06'0 0.0 1007.2 12.4 8.5
2014-Oct-19 21:00N 55°30' W 005°06'0 0.0 1006.6 11.8 7.6
2014-Oct-19 20:00N 55°30' W 005°06'0 0.0 1005.8 12.1 8.4
2014-Oct-19 19:00N 55°30' W 005°06'0 0.0 1005.0 12.1 8.4
2014-Oct-19 18:00N 55°30' W 005°06'0 0.0 1003.8 12.5 8.4
2014-Oct-19 17:00N 55°30' W 005°06'0 0.0 1003.3 12.5 8.7
2014-Oct-19 16:00N 55°30' W 005°06'0 0.0 1002.2 12.9 8.2
2014-Oct-19 15:00N 55°30' W 005°06'0 0.0 1001.5 13.0 8.7
2014-Oct-19 14:00N 55°30' W 005°06'0 0.0 1000.4 13.0 9.6
2014-Oct-19 13:00N 55°30' W 005°06'0 0.0 998.3 13.310.6
2014-Oct-19 12:00N 55°30' W 005°06'0 0.0 997.7 13.310.9
2014-Oct-19 11:00N 55°30' W 005°06'0 0.0 997.2 13.710.6
2014-Oct-19 10:00N 55°30' W 005°06'0 0.0 996.6 13.810.8
2014-Oct-19 09:00N 55°30' W 005°06'0 0.0 995.7 13.711.1
2014-Oct-19 08:00N 55°30' W 005°06'0 0.0 995.7 13.511.1
2014-Oct-19 07:00N 55°30' W 005°06'0 0.0 995.0 13.810.9
2014-Oct-19 06:00N 55°30' W 005°06'0 0.0 995.1 13.910.7
2014-Oct-19 05:00N 55°30' W 005°06'0 0.0 995.3 14.510.3
2014-Oct-19 04:00N 55°30' W 005°06'0 0.0 995.7 15.010.1
2014-Oct-19 03:00N 55°30' W 005°06'0 0.0 996.1 14.710.9
2014-Oct-19 02:00N 55°30' W 005°06'0 0.0 997.0 14.711.6
2014-Oct-19 01:00N 55°30' W 005°06'0 0.0 997.3 14.811.8
2014-Oct-19 00:00N 55°30' W 005°06'0 0.0 998.2 14.811.8
2014-Oct-18 23:00N 55°30' W 005°06'0 0.0 998.5 14.811.7
2014-Oct-18 22:00N 55°30' W 005°06'0 0.0 998.9 14.911.7
2014-Oct-18 21:00N 55°30' W 005°06'0 0.0 998.8 15.011.9
2014-Oct-18 20:00N 55°30' W 005°06'0 0.0 998.8 15.112.0
2014-Oct-18 19:00N 55°30' W 005°06'0 0.0 998.6 15.112.3
2014-Oct-18 18:00N 55°30' W 005°06'0 0.0 998.2 15.212.3
2014-Oct-18 17:00N 55°30' W 005°06'0 0.0 998.2 15.312.4
2014-Oct-18 16:00N 55°30' W 005°06'0 0.0 998.1 15.512.3
2014-Oct-18 15:00N 55°30' W 005°06'0 0.0 997.8 15.612.7
2014-Oct-18 14:00N 55°30' W 005°06'0 0.0 997.7 15.412.3
2014-Oct-18 13:00N 55°30' W 005°06'0 0.0 997.5 15.712.5
2014-Oct-18 12:00N 55°30' W 005°06'1211.8 997.0 15.312.6
2014-Oct-18 11:00N 55°36' W 004°48'3 3.4 997.5 15.412.0
2014-Oct-18 10:00N 55°36' W 004°42'9 9.0 997.4 15.212.1
2014-Oct-18 09:00N 55°42' W 004°54'7 6.9 996.2 14.511.7
2014-Oct-18 08:00N 55°48' W 005°00'7 6.9 995.4 14.512.4
2014-Oct-18 07:00N 55°54' W 005°06'0 0.0 994.8 15.412.4
2014-Oct-18 06:00N 55°54' W 005°06'0 0.0 994.3 15.412.9
2014-Oct-18 05:00N 55°54' W 005°06'0 0.0 994.0 15.413.1
2014-Oct-18 04:00N 55°54' W 005°06'0 0.0 994.3 15.513.2
2014-Oct-18 03:00N 55°54' W 005°06'0 0.0 994.8 15.613.3
2014-Oct-18 02:00N 55°54' W 005°06'0 0.0 994.5 15.513.3
2014-Oct-18 01:00N 55°54' W 005°06'0 0.0 995.0 15.113.0
2014-Oct-18 00:00N 55°54' W 005°06'0 0.0 995.4 14.713.1
2014-Oct-17 23:00N 55°54' W 005°06'0 0.0 995.7 13.712.1
2014-Oct-17 22:00N 55°54' W 005°06'0 0.0 997.0 14.211.9
2014-Oct-17 21:00N 55°54' W 005°06'0 0.0 998.5 14.611.7
2014-Oct-17 20:00N 55°54' W 005°06'7 6.7 1000.1 15.211.6
2014-Oct-17 19:00N 55°54' W 004°54'3 3.4 1001.3 15.211.9
2014-Oct-17 18:00N 55°54' W 004°48'0 0.0 1002.4 14.912.0
2014-Oct-17 17:00N 55°54' W 004°48'0 0.0 1002.6 15.312.1
2014-Oct-17 16:00N 55°54' W 004°48'0 0.0 1002.7 15.511.8
2014-Oct-17 15:00N 55°54' W 004°48'0 0.0 1003.2 16.411.8
2014-Oct-17 14:00N 55°54' W 004°48'0 0.0 1003.2 16.811.8
2014-Oct-17 13:00N 55°54' W 004°48'0 0.0 1003.5 16.411.1
2014-Oct-17 12:00N 55°54' W 004°48'0 0.0 1003.9 16.111.2
2014-Oct-17 11:00N 55°54' W 004°48'0 0.0 1003.8 15.211.1
2014-Oct-17 10:00N 55°54' W 004°48'0 0.0 1003.3 14.512.3
2014-Oct-17 09:00N 55°54' W 004°48'0 0.0 1002.6 12.710.9
2014-Oct-17 08:00N 55°54' W 004°48'0 0.0 1002.0 12.310.6
2014-Oct-17 07:00N 55°54' W 004°48'0 0.0 1001.1 12.010.3
2014-Oct-17 06:00N 55°54' W 004°48'0 0.0 1000.5 12.010.3
2014-Oct-17 05:00N 55°54' W 004°48'0 0.0 999.9 11.610.1
2014-Oct-17 04:00N 55°54' W 004°48'0 0.0 999.8 11.810.1
2014-Oct-17 03:00N 55°54' W 004°48'0 0.0 999.5 11.6 9.8
2014-Oct-17 02:00N 55°54' W 004°48'0 0.0 999.6 11.4 9.7
2014-Oct-17 01:00N 55°54' W 004°48'0 0.0 999.7 11.4 9.7
2014-Oct-17 00:00N 55°54' W 004°48'0 0.0 999.6 11.4 9.6
2014-Oct-16 23:00N 55°54' W 004°48'0 0.0 1000.2 11.5 9.4
2014-Oct-16 22:00N 55°54' W 004°48'0 0.0 1000.1 11.7 9.5
2014-Oct-16 21:00N 55°54' W 004°48'0 0.0 1000.2 11.7 9.3
2014-Oct-16 20:00N 55°54' W 004°48'0 0.0 1000.2 12.2 9.0
2014-Oct-16 19:00N 55°54' W 004°48'0 0.0 1000.1 12.4 9.2
2014-Oct-16 18:00N 55°54' W 004°48'0 0.0 999.9 12.8 9.6
2014-Oct-16 17:00N 55°54' W 004°48'0 0.0 999.5 12.7 9.3
2014-Oct-16 14:00N 55°54' W 004°48'0 0.0 1000.1 13.1 9.8
2014-Oct-16 12:00N 55°54' W 004°48'0 0.0 1000.1 12.8 9.8
2014-Oct-16 11:00N 55°54' W 004°48'0 0.0 1000.4 12.6 9.9
2014-Oct-16 10:00N 55°54' W 004°48'0 0.0 1000.2 11.9 9.3
2014-Oct-16 08:00N 55°54' W 004°48'0 0.0 999.9 11.0 9.1
2014-Oct-16 07:00N 55°54' W 004°48'0 0.0 999.5 10.7 8.7
2014-Oct-16 06:00N 55°54' W 004°48'0 0.0 999.3 10.6 8.7
2014-Oct-16 04:00N 55°54' W 004°48'0 0.0 999.5 10.3 8.3
2014-Oct-16 03:00N 55°54' W 004°48'0 0.0 999.8 10.7 7.8
2014-Oct-16 02:00N 55°54' W 004°48'0 0.0 1000.2 10.9 7.7
2014-Oct-16 00:00N 55°54' W 004°48'0 0.0 1001.2 11.2 7.1
2014-Oct-15 23:00N 55°54' W 004°48'0 0.0 1001.7 11.1 6.9
2014-Oct-15 22:00N 55°54' W 004°48'0 0.0 1002.4 11.1 6.9
2014-Oct-15 20:00N 55°54' W 004°48'0 0.0 1002.6 11.2 6.4
2014-Oct-15 19:00N 55°54' W 004°48'0 0.0 1002.9 11.4 5.7
2014-Oct-15 18:00N 55°54' W 004°48'0 0.0 1003.2 11.7 5.8
2014-Oct-15 17:00N 55°54' W 004°48'0 0.0 1003.2 12.3 5.5
2014-Oct-15 15:00N 55°54' W 004°48'0 0.0 1003.9 13.6 5.1
2014-Oct-15 14:00N 55°54' W 004°48'0 0.0 1004.6 14.1 6.4
2014-Oct-15 13:00N 55°54' W 004°48'0 0.0 1005.1 13.2 6.8
2014-Oct-15 12:00N 55°54' W 004°48'0 0.0 1006.1 12.9 7.0
2014-Oct-15 11:00N 55°54' W 004°48'0 0.0 1006.9 12.3 7.0
2014-Oct-15 10:00N 55°54' W 004°48'0 0.0 1007.8 10.6 7.3
2014-Oct-15 09:00N 55°54' W 004°48'0 0.0 1008.2 10.0 6.8
2014-Oct-15 08:00N 55°54' W 004°48'0 0.0 1008.2 9.8 6.6
2014-Oct-15 07:00N 55°54' W 004°48'0 0.0 1008.4 9.5 6.2
2014-Oct-15 05:00N 55°54' W 004°48'0 0.0 1008.7 9.5 5.9
2014-Oct-15 04:00N 55°54' W 004°48'0 0.0 1009.0 9.2 5.7
2014-Oct-15 03:00N 55°54' W 004°48'0 0.0 1009.6 9.2 5.6
2014-Oct-15 02:00N 55°54' W 004°48'0 0.0 1010.2 9.2 5.5
2014-Oct-15 00:00N 55°54' W 004°48'   1011.2 9.5 5.2

Dump ship's entire track history